sensor_id;sensor_type;location;lat;lon;timestamp;temperature;humidity
54202;DHT22;40108;53.152;5.844;2023-07-29T00:00:47;18.20;92.10
54202;DHT22;40108;53.152;5.844;2023-07-29T00:03:13;18.20;92.20
54202;DHT22;40108;53.152;5.844;2023-07-29T00:05:40;18.20;92.20
54202;DHT22;40108;53.152;5.844;2023-07-29T00:08:06;18.10;92.30
54202;DHT22;40108;53.152;5.844;2023-07-29T00:10:32;18.10;92.40
54202;DHT22;40108;53.152;5.844;2023-07-29T00:12:58;18.10;92.50
54202;DHT22;40108;53.152;5.844;2023-07-29T00:15:24;18.10;92.60
54202;DHT22;40108;53.152;5.844;2023-07-29T00:17:50;18.10;92.60
54202;DHT22;40108;53.152;5.844;2023-07-29T00:20:16;18.10;92.50
54202;DHT22;40108;53.152;5.844;2023-07-29T00:22:41;18.10;92.50
54202;DHT22;40108;53.152;5.844;2023-07-29T00:25:07;18.10;92.50
54202;DHT22;40108;53.152;5.844;2023-07-29T00:27:33;18.10;92.60
54202;DHT22;40108;53.152;5.844;2023-07-29T00:29:59;18.10;92.70
54202;DHT22;40108;53.152;5.844;2023-07-29T00:32:26;18.10;92.70
54202;DHT22;40108;53.152;5.844;2023-07-29T00:34:52;18.10;92.70
54202;DHT22;40108;53.152;5.844;2023-07-29T00:37:18;18.10;92.70
54202;DHT22;40108;53.152;5.844;2023-07-29T00:39:43;18.10;92.80
54202;DHT22;40108;53.152;5.844;2023-07-29T00:42:09;18.10;92.80
54202;DHT22;40108;53.152;5.844;2023-07-29T00:44:35;18.10;92.90
54202;DHT22;40108;53.152;5.844;2023-07-29T00:47:02;18.00;92.90
54202;DHT22;40108;53.152;5.844;2023-07-29T00:49:29;18.10;93.00
54202;DHT22;40108;53.152;5.844;2023-07-29T00:51:55;18.10;93.00
54202;DHT22;40108;53.152;5.844;2023-07-29T00:54:20;18.10;93.10
54202;DHT22;40108;53.152;5.844;2023-07-29T00:56:46;18.00;93.20
54202;DHT22;40108;53.152;5.844;2023-07-29T00:59:12;18.10;93.20
54202;DHT22;40108;53.152;5.844;2023-07-29T01:01:38;18.00;93.40
54202;DHT22;40108;53.152;5.844;2023-07-29T01:04:04;18.00;93.40
54202;DHT22;40108;53.152;5.844;2023-07-29T01:06:50;18.00;93.50
54202;DHT22;40108;53.152;5.844;2023-07-29T01:09:44;18.00;93.50
54202;DHT22;40108;53.152;5.844;2023-07-29T01:12:20;18.00;93.50
54202;DHT22;40108;53.152;5.844;2023-07-29T01:17:23;18.00;93.50
54202;DHT22;40108;53.152;5.844;2023-07-29T01:20:08;18.00;93.60
54202;DHT22;40108;53.152;5.844;2023-07-29T01:22:35;18.00;93.70
54202;DHT22;40108;53.152;5.844;2023-07-29T01:25:02;18.00;93.80
54202;DHT22;40108;53.152;5.844;2023-07-29T01:27:29;18.00;93.80
54202;DHT22;40108;53.152;5.844;2023-07-29T01:29:56;18.00;93.80
54202;DHT22;40108;53.152;5.844;2023-07-29T01:35:00;18.00;93.80
54202;DHT22;40108;53.152;5.844;2023-07-29T01:37:31;18.00;93.80
54202;DHT22;40108;53.152;5.844;2023-07-29T01:39:59;18.00;93.80
54202;DHT22;40108;53.152;5.844;2023-07-29T01:42:25;18.00;93.80
54202;DHT22;40108;53.152;5.844;2023-07-29T01:44:52;17.90;93.90
54202;DHT22;40108;53.152;5.844;2023-07-29T01:47:18;18.00;93.90
54202;DHT22;40108;53.152;5.844;2023-07-29T01:49:44;18.00;93.90
54202;DHT22;40108;53.152;5.844;2023-07-29T01:52:09;17.90;93.90
54202;DHT22;40108;53.152;5.844;2023-07-29T01:54:35;17.90;93.90
54202;DHT22;40108;53.152;5.844;2023-07-29T01:57:01;17.80;93.90
54202;DHT22;40108;53.152;5.844;2023-07-29T01:59:26;17.80;93.90
54202;DHT22;40108;53.152;5.844;2023-07-29T02:01:52;17.80;93.90
54202;DHT22;40108;53.152;5.844;2023-07-29T02:04:18;17.80;94.00
54202;DHT22;40108;53.152;5.844;2023-07-29T02:06:43;17.80;94.10
54202;DHT22;40108;53.152;5.844;2023-07-29T02:09:09;17.80;94.20
54202;DHT22;40108;53.152;5.844;2023-07-29T02:11:35;17.80;94.10
54202;DHT22;40108;53.152;5.844;2023-07-29T02:14:01;17.70;94.20
54202;DHT22;40108;53.152;5.844;2023-07-29T02:16:26;17.70;94.20
54202;DHT22;40108;53.152;5.844;2023-07-29T02:18:52;17.70;94.30
54202;DHT22;40108;53.152;5.844;2023-07-29T02:21:18;17.70;94.30
54202;DHT22;40108;53.152;5.844;2023-07-29T02:23:43;17.70;94.40
54202;DHT22;40108;53.152;5.844;2023-07-29T02:26:09;17.70;94.50
54202;DHT22;40108;53.152;5.844;2023-07-29T02:28:35;17.70;94.50
54202;DHT22;40108;53.152;5.844;2023-07-29T02:31:14;17.60;94.60
54202;DHT22;40108;53.152;5.844;2023-07-29T02:33:40;17.60;94.60
54202;DHT22;40108;53.152;5.844;2023-07-29T02:36:05;17.60;94.60
54202;DHT22;40108;53.152;5.844;2023-07-29T02:38:31;17.60;94.60
54202;DHT22;40108;53.152;5.844;2023-07-29T02:40:57;17.60;94.60
54202;DHT22;40108;53.152;5.844;2023-07-29T02:43:22;17.60;94.50
54202;DHT22;40108;53.152;5.844;2023-07-29T02:45:48;17.50;94.50
54202;DHT22;40108;53.152;5.844;2023-07-29T02:48:14;17.50;94.40
54202;DHT22;40108;53.152;5.844;2023-07-29T02:50:39;17.50;94.30
54202;DHT22;40108;53.152;5.844;2023-07-29T02:53:06;17.40;94.30
54202;DHT22;40108;53.152;5.844;2023-07-29T02:55:31;17.40;94.20
54202;DHT22;40108;53.152;5.844;2023-07-29T02:57:57;17.30;94.10
54202;DHT22;40108;53.152;5.844;2023-07-29T03:00:23;17.30;94.10
54202;DHT22;40108;53.152;5.844;2023-07-29T03:02:50;17.20;94.10
54202;DHT22;40108;53.152;5.844;2023-07-29T03:05:16;17.20;94.10
54202;DHT22;40108;53.152;5.844;2023-07-29T03:07:42;17.10;94.10
54202;DHT22;40108;53.152;5.844;2023-07-29T03:10:08;17.10;94.10
54202;DHT22;40108;53.152;5.844;2023-07-29T03:12:34;17.10;94.10
54202;DHT22;40108;53.152;5.844;2023-07-29T03:15:00;17.10;94.20
54202;DHT22;40108;53.152;5.844;2023-07-29T03:17:25;17.00;94.20
54202;DHT22;40108;53.152;5.844;2023-07-29T03:19:52;17.00;94.20
54202;DHT22;40108;53.152;5.844;2023-07-29T03:22:18;17.00;94.20
54202;DHT22;40108;53.152;5.844;2023-07-29T03:24:43;17.00;94.20
54202;DHT22;40108;53.152;5.844;2023-07-29T03:27:09;16.90;94.10
54202;DHT22;40108;53.152;5.844;2023-07-29T03:29:35;16.90;94.20
54202;DHT22;40108;53.152;5.844;2023-07-29T03:32:01;16.80;94.20
54202;DHT22;40108;53.152;5.844;2023-07-29T03:34:27;16.80;94.20
54202;DHT22;40108;53.152;5.844;2023-07-29T03:36:53;16.80;94.20
54202;DHT22;40108;53.152;5.844;2023-07-29T03:39:18;16.80;94.20
54202;DHT22;40108;53.152;5.844;2023-07-29T03:41:44;16.70;94.30
54202;DHT22;40108;53.152;5.844;2023-07-29T03:44:10;16.70;94.40
54202;DHT22;40108;53.152;5.844;2023-07-29T03:46:35;16.70;94.40
54202;DHT22;40108;53.152;5.844;2023-07-29T03:49:01;16.60;94.50
54202;DHT22;40108;53.152;5.844;2023-07-29T03:51:28;16.60;94.50
54202;DHT22;40108;53.152;5.844;2023-07-29T03:53:54;16.60;94.50
54202;DHT22;40108;53.152;5.844;2023-07-29T03:56:19;16.60;94.50
54202;DHT22;40108;53.152;5.844;2023-07-29T03:58:46;16.60;94.60
54202;DHT22;40108;53.152;5.844;2023-07-29T04:01:13;16.60;94.70
54202;DHT22;40108;53.152;5.844;2023-07-29T04:03:39;16.60;94.70
54202;DHT22;40108;53.152;5.844;2023-07-29T04:06:05;16.50;94.70
54202;DHT22;40108;53.152;5.844;2023-07-29T04:08:31;16.50;94.80
54202;DHT22;40108;53.152;5.844;2023-07-29T04:10:56;16.40;94.90
54202;DHT22;40108;53.152;5.844;2023-07-29T04:13:22;16.50;95.00
54202;DHT22;40108;53.152;5.844;2023-07-29T04:15:48;16.40;95.00
54202;DHT22;40108;53.152;5.844;2023-07-29T04:18:14;16.40;95.10
54202;DHT22;40108;53.152;5.844;2023-07-29T04:20:40;16.50;95.20
54202;DHT22;40108;53.152;5.844;2023-07-29T04:23:05;16.50;95.10
54202;DHT22;40108;53.152;5.844;2023-07-29T04:25:31;16.50;95.20
54202;DHT22;40108;53.152;5.844;2023-07-29T04:27:57;16.50;95.20
54202;DHT22;40108;53.152;5.844;2023-07-29T04:30:23;16.50;95.30
54202;DHT22;40108;53.152;5.844;2023-07-29T04:32:49;16.60;95.30
54202;DHT22;40108;53.152;5.844;2023-07-29T04:35:15;16.60;95.40
54202;DHT22;40108;53.152;5.844;2023-07-29T04:37:41;16.60;95.30
54202;DHT22;40108;53.152;5.844;2023-07-29T04:40:07;16.60;95.30
54202;DHT22;40108;53.152;5.844;2023-07-29T04:42:33;16.60;95.30
54202;DHT22;40108;53.152;5.844;2023-07-29T04:44:59;16.60;95.20
54202;DHT22;40108;53.152;5.844;2023-07-29T04:47:24;16.70;95.20
54202;DHT22;40108;53.152;5.844;2023-07-29T04:49:50;16.70;95.20
54202;DHT22;40108;53.152;5.844;2023-07-29T04:52:16;16.70;95.10
54202;DHT22;40108;53.152;5.844;2023-07-29T04:54:41;16.70;95.10
54202;DHT22;40108;53.152;5.844;2023-07-29T04:57:07;16.80;95.10
54202;DHT22;40108;53.152;5.844;2023-07-29T04:59:33;16.80;95.10
54202;DHT22;40108;53.152;5.844;2023-07-29T05:01:58;16.80;95.00
54202;DHT22;40108;53.152;5.844;2023-07-29T05:04:24;16.90;95.00
54202;DHT22;40108;53.152;5.844;2023-07-29T05:06:50;16.90;94.90
54202;DHT22;40108;53.152;5.844;2023-07-29T05:09:17;16.90;94.90
54202;DHT22;40108;53.152;5.844;2023-07-29T05:11:44;17.00;94.90
54202;DHT22;40108;53.152;5.844;2023-07-29T05:14:15;17.00;94.90
54202;DHT22;40108;53.152;5.844;2023-07-29T05:16:41;17.00;94.80
54202;DHT22;40108;53.152;5.844;2023-07-29T05:19:07;17.00;94.80
54202;DHT22;40108;53.152;5.844;2023-07-29T05:21:33;17.00;94.90
54202;DHT22;40108;53.152;5.844;2023-07-29T05:23:58;17.10;94.90
54202;DHT22;40108;53.152;5.844;2023-07-29T05:26:24;17.10;94.90
54202;DHT22;40108;53.152;5.844;2023-07-29T05:28:50;17.10;94.90
54202;DHT22;40108;53.152;5.844;2023-07-29T05:31:16;17.10;94.80
54202;DHT22;40108;53.152;5.844;2023-07-29T05:33:42;17.10;94.80
54202;DHT22;40108;53.152;5.844;2023-07-29T05:36:07;17.10;94.90
54202;DHT22;40108;53.152;5.844;2023-07-29T05:38:33;17.10;94.90
54202;DHT22;40108;53.152;5.844;2023-07-29T05:40:59;17.10;94.90
54202;DHT22;40108;53.152;5.844;2023-07-29T05:43:25;17.10;94.90
54202;DHT22;40108;53.152;5.844;2023-07-29T05:45:50;17.20;94.90
54202;DHT22;40108;53.152;5.844;2023-07-29T05:48:16;17.20;94.90
54202;DHT22;40108;53.152;5.844;2023-07-29T05:50:42;17.20;94.90
54202;DHT22;40108;53.152;5.844;2023-07-29T05:53:08;17.30;95.00
54202;DHT22;40108;53.152;5.844;2023-07-29T05:55:33;17.30;95.00
54202;DHT22;40108;53.152;5.844;2023-07-29T05:57:59;17.40;94.90
54202;DHT22;40108;53.152;5.844;2023-07-29T06:00:25;17.50;95.00
54202;DHT22;40108;53.152;5.844;2023-07-29T06:02:51;17.60;94.90
54202;DHT22;40108;53.152;5.844;2023-07-29T06:05:16;17.60;94.90
54202;DHT22;40108;53.152;5.844;2023-07-29T06:07:42;17.70;94.90
54202;DHT22;40108;53.152;5.844;2023-07-29T06:10:14;17.90;94.80
54202;DHT22;40108;53.152;5.844;2023-07-29T06:12:43;17.90;94.50
54202;DHT22;40108;53.152;5.844;2023-07-29T06:15:09;18.00;94.20
54202;DHT22;40108;53.152;5.844;2023-07-29T06:17:34;18.00;94.00
54202;DHT22;40108;53.152;5.844;2023-07-29T06:20:00;18.10;93.90
54202;DHT22;40108;53.152;5.844;2023-07-29T06:22:26;18.10;93.70
54202;DHT22;40108;53.152;5.844;2023-07-29T06:24:52;18.20;93.60
54202;DHT22;40108;53.152;5.844;2023-07-29T06:27:17;18.40;93.50
54202;DHT22;40108;53.152;5.844;2023-07-29T06:29:43;18.60;93.50
54202;DHT22;40108;53.152;5.844;2023-07-29T06:32:09;18.80;93.00
54202;DHT22;40108;53.152;5.844;2023-07-29T06:34:34;18.80;92.40
54202;DHT22;40108;53.152;5.844;2023-07-29T06:37:00;18.90;92.50
54202;DHT22;40108;53.152;5.844;2023-07-29T06:39:26;19.00;92.20
54202;DHT22;40108;53.152;5.844;2023-07-29T06:41:52;18.90;91.70
54202;DHT22;40108;53.152;5.844;2023-07-29T06:44:17;19.00;91.60
54202;DHT22;40108;53.152;5.844;2023-07-29T06:46:43;18.90;91.30
54202;DHT22;40108;53.152;5.844;2023-07-29T06:49:09;18.80;91.00
54202;DHT22;40108;53.152;5.844;2023-07-29T06:51:35;18.80;91.00
54202;DHT22;40108;53.152;5.844;2023-07-29T06:54:04;18.70;91.10
54202;DHT22;40108;53.152;5.844;2023-07-29T06:56:30;18.80;91.00
54202;DHT22;40108;53.152;5.844;2023-07-29T06:58:55;18.80;91.10
54202;DHT22;40108;53.152;5.844;2023-07-29T07:01:21;18.70;90.80
54202;DHT22;40108;53.152;5.844;2023-07-29T07:03:47;18.70;90.90
54202;DHT22;40108;53.152;5.844;2023-07-29T07:06:13;18.70;90.90
54202;DHT22;40108;53.152;5.844;2023-07-29T07:08:38;18.70;91.00
54202;DHT22;40108;53.152;5.844;2023-07-29T07:11:04;18.80;91.10
54202;DHT22;40108;53.152;5.844;2023-07-29T07:13:30;18.90;91.00
54202;DHT22;40108;53.152;5.844;2023-07-29T07:15:56;19.00;91.10
54202;DHT22;40108;53.152;5.844;2023-07-29T07:18:22;19.10;90.50
54202;DHT22;40108;53.152;5.844;2023-07-29T07:20:51;19.20;90.50
54202;DHT22;40108;53.152;5.844;2023-07-29T07:23:18;19.50;90.00
54202;DHT22;40108;53.152;5.844;2023-07-29T07:25:44;19.60;89.50
54202;DHT22;40108;53.152;5.844;2023-07-29T07:28:10;19.80;89.00
54202;DHT22;40108;53.152;5.844;2023-07-29T07:30:39;19.90;88.70
54202;DHT22;40108;53.152;5.844;2023-07-29T07:33:06;19.90;87.80
54202;DHT22;40108;53.152;5.844;2023-07-29T07:35:32;19.90;87.70
54202;DHT22;40108;53.152;5.844;2023-07-29T07:37:58;19.70;87.80
54202;DHT22;40108;53.152;5.844;2023-07-29T07:40:27;19.60;87.90
54202;DHT22;40108;53.152;5.844;2023-07-29T07:42:53;19.60;88.20
54202;DHT22;40108;53.152;5.844;2023-07-29T07:45:19;19.60;88.40
54202;DHT22;40108;53.152;5.844;2023-07-29T07:47:45;19.60;88.70
54202;DHT22;40108;53.152;5.844;2023-07-29T07:50:10;19.70;87.90
54202;DHT22;40108;53.152;5.844;2023-07-29T07:52:36;19.60;87.70
54202;DHT22;40108;53.152;5.844;2023-07-29T07:55:02;19.60;87.70
54202;DHT22;40108;53.152;5.844;2023-07-29T07:57:27;19.60;87.00
54202;DHT22;40108;53.152;5.844;2023-07-29T07:59:53;19.60;87.60
54202;DHT22;40108;53.152;5.844;2023-07-29T08:02:19;19.60;87.90
54202;DHT22;40108;53.152;5.844;2023-07-29T08:04:45;19.70;87.50
54202;DHT22;40108;53.152;5.844;2023-07-29T08:07:11;19.70;87.10
54202;DHT22;40108;53.152;5.844;2023-07-29T08:09:39;19.70;87.30
54202;DHT22;40108;53.152;5.844;2023-07-29T08:12:05;19.60;87.60
54202;DHT22;40108;53.152;5.844;2023-07-29T08:14:30;19.70;87.90
54202;DHT22;40108;53.152;5.844;2023-07-29T08:16:56;19.70;87.20
54202;DHT22;40108;53.152;5.844;2023-07-29T08:19:22;19.90;87.10
54202;DHT22;40108;53.152;5.844;2023-07-29T08:21:48;19.80;86.30
54202;DHT22;40108;53.152;5.844;2023-07-29T08:24:14;19.80;86.40
54202;DHT22;40108;53.152;5.844;2023-07-29T08:26:40;19.80;86.80
54202;DHT22;40108;53.152;5.844;2023-07-29T08:29:05;19.80;86.60
54202;DHT22;40108;53.152;5.844;2023-07-29T08:31:31;19.90;86.40
54202;DHT22;40108;53.152;5.844;2023-07-29T08:33:59;20.00;86.70
54202;DHT22;40108;53.152;5.844;2023-07-29T08:36:26;20.20;86.80
54202;DHT22;40108;53.152;5.844;2023-07-29T08:38:51;20.20;85.20
54202;DHT22;40108;53.152;5.844;2023-07-29T08:41:54;20.20;85.20
54202;DHT22;40108;53.152;5.844;2023-07-29T08:44:23;20.10;85.40
54202;DHT22;40108;53.152;5.844;2023-07-29T08:46:49;20.10;85.70
54202;DHT22;40108;53.152;5.844;2023-07-29T08:49:18;20.10;85.50
54202;DHT22;40108;53.152;5.844;2023-07-29T08:51:49;20.20;85.40
54202;DHT22;40108;53.152;5.844;2023-07-29T08:54:15;20.30;85.50
54202;DHT22;40108;53.152;5.844;2023-07-29T08:56:41;20.40;85.80
54202;DHT22;40108;53.152;5.844;2023-07-29T08:59:08;20.40;84.20
54202;DHT22;40108;53.152;5.844;2023-07-29T09:01:34;20.30;84.00
54202;DHT22;40108;53.152;5.844;2023-07-29T09:04:00;20.30;84.10
54202;DHT22;40108;53.152;5.844;2023-07-29T09:06:26;20.30;84.40
54202;DHT22;40108;53.152;5.844;2023-07-29T09:08:56;20.40;84.60
54202;DHT22;40108;53.152;5.844;2023-07-29T09:11:22;20.40;84.60
54202;DHT22;40108;53.152;5.844;2023-07-29T09:13:48;20.50;84.90
54202;DHT22;40108;53.152;5.844;2023-07-29T09:16:14;20.50;84.50
54202;DHT22;40108;53.152;5.844;2023-07-29T09:18:40;20.60;84.30
54202;DHT22;40108;53.152;5.844;2023-07-29T09:21:06;20.60;84.50
54202;DHT22;40108;53.152;5.844;2023-07-29T09:23:41;20.70;84.80
54202;DHT22;40108;53.152;5.844;2023-07-29T09:26:07;20.80;84.60
54202;DHT22;40108;53.152;5.844;2023-07-29T09:28:38;20.70;84.40
54202;DHT22;40108;53.152;5.844;2023-07-29T09:31:05;20.70;84.90
54202;DHT22;40108;53.152;5.844;2023-07-29T09:33:34;20.60;85.20
54202;DHT22;40108;53.152;5.844;2023-07-29T09:36:09;20.50;85.20
54202;DHT22;40108;53.152;5.844;2023-07-29T09:38:35;20.40;86.10
54202;DHT22;40108;53.152;5.844;2023-07-29T09:41:01;20.40;87.30
54202;DHT22;40108;53.152;5.844;2023-07-29T09:43:34;20.40;87.50
54202;DHT22;40108;53.152;5.844;2023-07-29T09:46:01;20.40;87.50
54202;DHT22;40108;53.152;5.844;2023-07-29T09:48:27;20.40;87.50
54202;DHT22;40108;53.152;5.844;2023-07-29T09:50:56;20.50;87.30
54202;DHT22;40108;53.152;5.844;2023-07-29T09:53:22;20.60;87.00
54202;DHT22;40108;53.152;5.844;2023-07-29T09:55:48;20.70;86.90
54202;DHT22;40108;53.152;5.844;2023-07-29T09:58:19;20.80;85.80
54202;DHT22;40108;53.152;5.844;2023-07-29T10:00:51;20.80;83.80
54202;DHT22;40108;53.152;5.844;2023-07-29T10:03:19;21.00;84.40
54202;DHT22;40108;53.152;5.844;2023-07-29T10:05:46;21.20;84.10
54202;DHT22;40108;53.152;5.844;2023-07-29T10:08:13;21.50;83.30
54202;DHT22;40108;53.152;5.844;2023-07-29T10:10:42;21.70;82.10
54202;DHT22;40108;53.152;5.844;2023-07-29T10:13:09;22.00;80.50
54202;DHT22;40108;53.152;5.844;2023-07-29T10:15:36;22.10;79.50
54202;DHT22;40108;53.152;5.844;2023-07-29T10:18:02;22.10;79.30
54202;DHT22;40108;53.152;5.844;2023-07-29T10:20:30;21.90;78.70
54202;DHT22;40108;53.152;5.844;2023-07-29T10:22:59;21.80;79.60
54202;DHT22;40108;53.152;5.844;2023-07-29T10:25:30;21.60;80.60
54202;DHT22;40108;53.152;5.844;2023-07-29T10:28:05;21.40;80.90
54202;DHT22;40108;53.152;5.844;2023-07-29T10:30:31;21.60;82.00
54202;DHT22;40108;53.152;5.844;2023-07-29T10:33:04;21.70;81.20
54202;DHT22;40108;53.152;5.844;2023-07-29T10:35:32;21.80;79.10
54202;DHT22;40108;53.152;5.844;2023-07-29T10:37:59;21.80;77.50
54202;DHT22;40108;53.152;5.844;2023-07-29T10:40:25;21.70;77.50
54202;DHT22;40108;53.152;5.844;2023-07-29T10:43:02;21.80;78.80
54202;DHT22;40108;53.152;5.844;2023-07-29T10:45:40;21.90;78.00
54202;DHT22;40108;53.152;5.844;2023-07-29T10:48:54;21.80;78.50
54202;DHT22;40108;53.152;5.844;2023-07-29T10:54:02;21.40;78.40
54202;DHT22;40108;53.152;5.844;2023-07-29T10:56:33;21.20;79.80
54202;DHT22;40108;53.152;5.844;2023-07-29T10:59:53;21.10;81.50
54202;DHT22;40108;53.152;5.844;2023-07-29T11:01:54;20.90;83.10
54202;DHT22;40108;53.152;5.844;2023-07-29T11:17:42;19.70;86.70
54202;DHT22;40108;53.152;5.844;2023-07-29T11:20:08;19.50;87.90
54202;DHT22;40108;53.152;5.844;2023-07-29T11:22:35;19.30;89.00
54202;DHT22;40108;53.152;5.844;2023-07-29T11:25:01;19.20;89.50
54202;DHT22;40108;53.152;5.844;2023-07-29T11:27:27;19.10;89.40
54202;DHT22;40108;53.152;5.844;2023-07-29T11:30:00;19.10;89.70
54202;DHT22;40108;53.152;5.844;2023-07-29T11:32:27;19.30;90.20
54202;DHT22;40108;53.152;5.844;2023-07-29T11:34:53;19.60;90.40
54202;DHT22;40108;53.152;5.844;2023-07-29T11:37:19;19.70;90.50
54202;DHT22;40108;53.152;5.844;2023-07-29T11:39:46;20.10;90.90
54202;DHT22;40108;53.152;5.844;2023-07-29T11:42:12;20.60;90.70
54202;DHT22;40108;53.152;5.844;2023-07-29T11:44:38;20.60;89.00
54202;DHT22;40108;53.152;5.844;2023-07-29T11:47:12;20.60;86.20
54202;DHT22;40108;53.152;5.844;2023-07-29T11:49:41;20.40;85.30
54202;DHT22;40108;53.152;5.844;2023-07-29T11:52:10;20.20;85.10
54202;DHT22;40108;53.152;5.844;2023-07-29T11:54:37;20.00;84.90
54202;DHT22;40108;53.152;5.844;2023-07-29T11:57:07;19.90;85.40
54202;DHT22;40108;53.152;5.844;2023-07-29T11:59:35;19.80;86.20
54202;DHT22;40108;53.152;5.844;2023-07-29T12:02:02;19.80;86.70
54202;DHT22;40108;53.152;5.844;2023-07-29T12:04:31;19.90;87.00
54202;DHT22;40108;53.152;5.844;2023-07-29T12:06:58;20.10;86.80
54202;DHT22;40108;53.152;5.844;2023-07-29T12:09:25;20.20;86.90
54202;DHT22;40108;53.152;5.844;2023-07-29T12:11:52;20.20;86.50
54202;DHT22;40108;53.152;5.844;2023-07-29T12:14:18;20.20;86.30
54202;DHT22;40108;53.152;5.844;2023-07-29T12:16:44;20.20;85.60
54202;DHT22;40108;53.152;5.844;2023-07-29T12:19:14;20.20;84.90
54202;DHT22;40108;53.152;5.844;2023-07-29T12:21:43;20.20;85.20
54202;DHT22;40108;53.152;5.844;2023-07-29T12:24:09;20.20;85.00
54202;DHT22;40108;53.152;5.844;2023-07-29T12:26:38;20.20;84.10
54202;DHT22;40108;53.152;5.844;2023-07-29T12:29:18;20.20;83.90
54202;DHT22;40108;53.152;5.844;2023-07-29T12:31:47;20.40;83.70
54202;DHT22;40108;53.152;5.844;2023-07-29T12:34:20;20.40;83.20
54202;DHT22;40108;53.152;5.844;2023-07-29T12:36:48;20.30;82.70
54202;DHT22;40108;53.152;5.844;2023-07-29T12:39:19;20.30;82.60
54202;DHT22;40108;53.152;5.844;2023-07-29T12:41:45;20.50;82.70
54202;DHT22;40108;53.152;5.844;2023-07-29T12:44:11;20.60;82.30
54202;DHT22;40108;53.152;5.844;2023-07-29T12:46:37;20.70;82.50
54202;DHT22;40108;53.152;5.844;2023-07-29T12:49:02;20.90;82.90
54202;DHT22;40108;53.152;5.844;2023-07-29T12:51:28;21.00;81.80
54202;DHT22;40108;53.152;5.844;2023-07-29T12:53:54;21.10;81.70
54202;DHT22;40108;53.152;5.844;2023-07-29T12:56:20;21.10;81.20
54202;DHT22;40108;53.152;5.844;2023-07-29T12:58:46;21.20;81.70
54202;DHT22;40108;53.152;5.844;2023-07-29T13:01:12;21.40;81.90
54202;DHT22;40108;53.152;5.844;2023-07-29T13:03:44;21.60;80.90
54202;DHT22;40108;53.152;5.844;2023-07-29T13:06:11;21.60;79.70
54202;DHT22;40108;53.152;5.844;2023-07-29T13:08:36;21.80;80.10
54202;DHT22;40108;53.152;5.844;2023-07-29T13:11:04;21.90;79.80
54202;DHT22;40108;53.152;5.844;2023-07-29T13:13:30;22.00;79.40
54202;DHT22;40108;53.152;5.844;2023-07-29T13:15:57;22.10;79.20
54202;DHT22;40108;53.152;5.844;2023-07-29T13:18:22;22.00;77.70
54202;DHT22;40108;53.152;5.844;2023-07-29T13:20:48;22.10;77.50
54202;DHT22;40108;53.152;5.844;2023-07-29T13:23:14;22.20;76.90
54202;DHT22;40108;53.152;5.844;2023-07-29T13:25:41;22.20;76.60
54202;DHT22;40108;53.152;5.844;2023-07-29T13:28:08;22.00;75.10
54202;DHT22;40108;53.152;5.844;2023-07-29T13:30:34;22.00;76.30
54202;DHT22;40108;53.152;5.844;2023-07-29T13:32:59;22.00;75.60
54202;DHT22;40108;53.152;5.844;2023-07-29T13:35:25;22.00;75.20
54202;DHT22;40108;53.152;5.844;2023-07-29T13:37:51;22.00;74.40
54202;DHT22;40108;53.152;5.844;2023-07-29T13:40:17;22.10;73.60
54202;DHT22;40108;53.152;5.844;2023-07-29T13:42:42;22.10;73.80
54202;DHT22;40108;53.152;5.844;2023-07-29T13:45:09;22.10;73.70
54202;DHT22;40108;53.152;5.844;2023-07-29T13:47:34;22.10;74.40
54202;DHT22;40108;53.152;5.844;2023-07-29T13:50:00;22.10;73.50
54202;DHT22;40108;53.152;5.844;2023-07-29T13:52:26;22.20;73.60
54202;DHT22;40108;53.152;5.844;2023-07-29T13:54:52;22.30;73.30
54202;DHT22;40108;53.152;5.844;2023-07-29T13:57:18;22.20;71.70
54202;DHT22;40108;53.152;5.844;2023-07-29T13:59:43;22.20;72.60
54202;DHT22;40108;53.152;5.844;2023-07-29T14:02:09;22.10;72.40
54202;DHT22;40108;53.152;5.844;2023-07-29T14:04:35;22.10;71.70
54202;DHT22;40108;53.152;5.844;2023-07-29T14:07:00;22.10;72.60
54202;DHT22;40108;53.152;5.844;2023-07-29T14:09:27;22.20;73.70
54202;DHT22;40108;53.152;5.844;2023-07-29T14:11:54;22.20;72.70
54202;DHT22;40108;53.152;5.844;2023-07-29T14:14:20;22.20;72.90
54202;DHT22;40108;53.152;5.844;2023-07-29T14:16:46;22.20;73.20
54202;DHT22;40108;53.152;5.844;2023-07-29T14:19:12;22.10;73.70
54202;DHT22;40108;53.152;5.844;2023-07-29T14:21:38;22.10;73.10
54202;DHT22;40108;53.152;5.844;2023-07-29T14:24:05;22.10;72.70
54202;DHT22;40108;53.152;5.844;2023-07-29T14:26:31;22.10;72.60
54202;DHT22;40108;53.152;5.844;2023-07-29T14:28:56;22.20;73.20
54202;DHT22;40108;53.152;5.844;2023-07-29T14:31:22;22.20;72.80
54202;DHT22;40108;53.152;5.844;2023-07-29T14:33:48;22.30;73.30
54202;DHT22;40108;53.152;5.844;2023-07-29T14:36:15;22.20;73.30
54202;DHT22;40108;53.152;5.844;2023-07-29T14:38:41;22.30;74.20
54202;DHT22;40108;53.152;5.844;2023-07-29T14:41:07;22.20;73.10
54202;DHT22;40108;53.152;5.844;2023-07-29T14:43:33;22.20;74.30
54202;DHT22;40108;53.152;5.844;2023-07-29T14:45:59;22.30;74.60
54202;DHT22;40108;53.152;5.844;2023-07-29T14:48:25;22.30;72.40
54202;DHT22;40108;53.152;5.844;2023-07-29T14:50:51;22.30;72.50
54202;DHT22;40108;53.152;5.844;2023-07-29T14:53:17;22.20;73.70
54202;DHT22;40108;53.152;5.844;2023-07-29T14:55:43;22.30;74.20
54202;DHT22;40108;53.152;5.844;2023-07-29T14:58:08;22.30;73.60
54202;DHT22;40108;53.152;5.844;2023-07-29T15:00:34;22.10;72.70
54202;DHT22;40108;53.152;5.844;2023-07-29T15:03:00;22.00;72.60
54202;DHT22;40108;53.152;5.844;2023-07-29T15:05:26;22.00;73.50
54202;DHT22;40108;53.152;5.844;2023-07-29T15:07:52;22.00;74.30
54202;DHT22;40108;53.152;5.844;2023-07-29T15:10:18;21.90;74.20
54202;DHT22;40108;53.152;5.844;2023-07-29T15:12:44;22.00;74.30
54202;DHT22;40108;53.152;5.844;2023-07-29T15:15:11;21.90;73.60
54202;DHT22;40108;53.152;5.844;2023-07-29T15:17:39;21.90;73.30
54202;DHT22;40108;53.152;5.844;2023-07-29T15:20:06;21.80;73.30
54202;DHT22;40108;53.152;5.844;2023-07-29T15:22:31;21.80;73.00
54202;DHT22;40108;53.152;5.844;2023-07-29T15:24:58;21.80;72.90
54202;DHT22;40108;53.152;5.844;2023-07-29T15:27:30;21.80;71.90
54202;DHT22;40108;53.152;5.844;2023-07-29T15:29:56;21.80;71.80
54202;DHT22;40108;53.152;5.844;2023-07-29T15:32:22;21.70;72.30
54202;DHT22;40108;53.152;5.844;2023-07-29T15:34:49;21.60;71.90
54202;DHT22;40108;53.152;5.844;2023-07-29T15:37:15;21.60;71.50
54202;DHT22;40108;53.152;5.844;2023-07-29T15:39:41;21.50;72.00
54202;DHT22;40108;53.152;5.844;2023-07-29T15:42:07;21.50;73.00
54202;DHT22;40108;53.152;5.844;2023-07-29T15:44:33;21.60;72.70
54202;DHT22;40108;53.152;5.844;2023-07-29T15:47:02;21.50;73.20
54202;DHT22;40108;53.152;5.844;2023-07-29T15:49:27;21.50;73.30